KLRJ/LRJ METAR and TAF weather

Enter ICAO airport designator
Station Type Date Time Source
KLRJ METAR 2019/12/14 17:15 UTC NOAA

KLRJ 141715Z AUTO 33013KT 10SM BKN008 BKN011 M12/M15 A3003 RMK AO2


Station Type Date Time Source
KLRJ Decoded METAR 2019/12/14 17:15 UTC NOAA

Le Mars, Le Mars Municipal Airport, IA, United States (KLRJ) 42-46-41N 096-11-37W
Dec 14, 2019 - 12:15 PM EST / 2019.12.14 1715 UTC
Wind: from the NNW (330 degrees) at 15 MPH (13 KT):0
Visibility: 10 mile(s):0
Sky conditions: mostly cloudy
Temperature: 10 F (-12 C)
Windchill: -5 F (-21 C):2
Dew Point: 5 F (-15 C)
Relative Humidity: 78%
Pressure (altimeter): 30.03 in. Hg (1016 hPa)
ob: KLRJ 141715Z AUTO 33013KT 10SM BKN008 BKN011 M12/M15 A3003 RMK AO2
cycle: 17

Station Type Date Time Source
KLRJ TAF UTC NOAA

Error!

Example: see airport list